sensor_id;sensor_type;location;lat;lon;timestamp;pressure;altitude;pressure_sealevel;temperature;humidity
49973;BME280;65693;49.798;10.968;2023-02-13T00:00:37;100219.84;;;8.58;58.25
49973;BME280;65693;49.798;10.968;2023-02-13T00:03:04;100214.66;;;8.55;58.05
49973;BME280;65693;49.798;10.968;2023-02-13T00:05:32;100218.19;;;8.54;58.24
49973;BME280;65693;49.798;10.968;2023-02-13T00:07:59;100224.38;;;8.54;58.51
49973;BME280;65693;49.798;10.968;2023-02-13T00:10:25;100220.00;;;8.53;58.08
49973;BME280;65693;49.798;10.968;2023-02-13T00:12:51;100213.81;;;8.53;58.34
49973;BME280;65693;49.798;10.968;2023-02-13T00:15:18;100217.41;;;8.50;58.37
49973;BME280;65693;49.798;10.968;2023-02-13T00:17:44;100215.66;;;8.49;58.40
49973;BME280;65693;49.798;10.968;2023-02-13T00:20:11;100226.28;;;8.48;58.58
49973;BME280;65693;49.798;10.968;2023-02-13T00:22:39;100219.22;;;8.48;58.15
49973;BME280;65693;49.798;10.968;2023-02-13T00:25:07;100219.25;;;8.47;58.23
49973;BME280;65693;49.798;10.968;2023-02-13T00:27:34;100215.78;;;8.45;58.34
49973;BME280;65693;49.798;10.968;2023-02-13T00:30:00;100216.66;;;8.45;58.05
49973;BME280;65693;49.798;10.968;2023-02-13T00:32:27;100224.66;;;8.42;58.44
49973;BME280;65693;49.798;10.968;2023-02-13T00:34:53;100217.63;;;8.41;58.15
49973;BME280;65693;49.798;10.968;2023-02-13T00:37:20;100209.69;;;8.41;58.54
49973;BME280;65693;49.798;10.968;2023-02-13T00:39:48;100213.25;;;8.40;58.51
49973;BME280;65693;49.798;10.968;2023-02-13T00:42:14;100210.69;;;8.37;58.52
49973;BME280;65693;49.798;10.968;2023-02-13T00:44:41;100215.97;;;8.37;58.27
49973;BME280;65693;49.798;10.968;2023-02-13T00:47:07;100217.72;;;8.36;58.66
49973;BME280;65693;49.798;10.968;2023-02-13T00:49:34;100217.69;;;8.38;58.26
49973;BME280;65693;49.798;10.968;2023-02-13T00:52:00;100215.97;;;8.37;58.27
49973;BME280;65693;49.798;10.968;2023-02-13T00:54:26;100210.72;;;8.34;58.54
49973;BME280;65693;49.798;10.968;2023-02-13T00:56:54;100215.13;;;8.35;58.12
49973;BME280;65693;49.798;10.968;2023-02-13T00:59:20;100217.78;;;8.33;58.02
49973;BME280;65693;49.798;10.968;2023-02-13T01:01:47;100223.09;;;8.32;58.33
49973;BME280;65693;49.798;10.968;2023-02-13T01:04:13;100220.50;;;8.30;58.64
49973;BME280;65693;49.798;10.968;2023-02-13T01:06:40;100224.00;;;8.31;58.26
49973;BME280;65693;49.798;10.968;2023-02-13T01:09:06;100220.59;;;8.25;58.33
49973;BME280;65693;49.798;10.968;2023-02-13T01:11:32;100220.63;;;8.24;58.25
49973;BME280;65693;49.798;10.968;2023-02-13T01:14:00;100229.38;;;8.27;58.38
49973;BME280;65693;49.798;10.968;2023-02-13T01:16:27;100223.28;;;8.24;58.05
49973;BME280;65693;49.798;10.968;2023-02-13T01:18:53;100222.44;;;8.22;58.58
49973;BME280;65693;49.798;10.968;2023-02-13T01:21:21;100221.53;;;8.23;58.35
49973;BME280;65693;49.798;10.968;2023-02-13T01:23:48;100224.22;;;8.21;58.33
49973;BME280;65693;49.798;10.968;2023-02-13T01:26:16;100223.31;;;8.22;58.49
49973;BME280;65693;49.798;10.968;2023-02-13T01:28:43;100221.59;;;8.20;58.18
49973;BME280;65693;49.798;10.968;2023-02-13T01:31:11;100220.69;;;8.21;58.26
49973;BME280;65693;49.798;10.968;2023-02-13T01:33:38;100219.00;;;8.18;58.18
49973;BME280;65693;49.798;10.968;2023-02-13T01:36:06;100226.06;;;8.16;58.38
49973;BME280;65693;49.798;10.968;2023-02-13T01:38:32;100218.16;;;8.16;58.19
49973;BME280;65693;49.798;10.968;2023-02-13T01:40:59;100214.69;;;8.14;58.59
49973;BME280;65693;49.798;10.968;2023-02-13T01:43:42;100211.13;;;8.15;58.24
49973;BME280;65693;49.798;10.968;2023-02-13T01:46:09;100212.03;;;8.16;57.93
49973;BME280;65693;49.798;10.968;2023-02-13T01:48:38;100211.22;;;8.12;58.17
49973;BME280;65693;49.798;10.968;2023-02-13T01:51:07;100209.44;;;8.12;58.10
49973;BME280;65693;49.798;10.968;2023-02-13T01:53:38;100215.59;;;8.13;58.13
49973;BME280;65693;49.798;10.968;2023-02-13T01:56:09;100210.38;;;8.10;58.47
49973;BME280;65693;49.798;10.968;2023-02-13T01:58:39;100208.66;;;8.07;58.30
49973;BME280;65693;49.798;10.968;2023-02-13T02:01:08;100206.06;;;8.06;58.44
49973;BME280;65693;49.798;10.968;2023-02-13T02:03:37;100204.34;;;8.05;58.36
49973;BME280;65693;49.798;10.968;2023-02-13T02:06:10;100205.19;;;8.05;58.19
49973;BME280;65693;49.798;10.968;2023-02-13T02:08:37;100213.16;;;8.04;58.74
49973;BME280;65693;49.798;10.968;2023-02-13T02:11:12;100204.41;;;8.02;58.64
49973;BME280;65693;49.798;10.968;2023-02-13T02:13:43;100205.25;;;8.04;58.49
49973;BME280;65693;49.798;10.968;2023-02-13T02:16:10;100206.19;;;8.00;58.54
49973;BME280;65693;49.798;10.968;2023-02-13T02:18:36;100201.78;;;8.00;58.66
49973;BME280;65693;49.798;10.968;2023-02-13T02:24:43;100206.31;;;7.95;58.77
49973;BME280;65693;49.798;10.968;2023-02-13T02:33:28;100201.06;;;7.92;58.67
49973;BME280;65693;49.798;10.968;2023-02-13T02:36:04;100208.97;;;7.93;58.58
49973;BME280;65693;49.798;10.968;2023-02-13T02:38:46;100210.69;;;7.94;58.61
49973;BME280;65693;49.798;10.968;2023-02-13T02:41:21;100201.13;;;7.90;58.49
49973;BME280;65693;49.798;10.968;2023-02-13T02:44:14;100208.13;;;7.91;58.72
49973;BME280;65693;49.798;10.968;2023-02-13T02:46:54;100206.47;;;7.87;58.69
49973;BME280;65693;49.798;10.968;2023-02-13T02:49:39;100202.09;;;7.86;58.59
49973;BME280;65693;49.798;10.968;2023-02-13T02:52:30;100205.56;;;7.88;58.26
49973;BME280;65693;49.798;10.968;2023-02-13T02:55:04;100207.38;;;7.86;58.59
49973;BME280;65693;49.798;10.968;2023-02-13T02:57:36;100195.94;;;7.84;58.60
49973;BME280;65693;49.798;10.968;2023-02-13T03:00:24;100201.28;;;7.82;58.71
49973;BME280;65693;49.798;10.968;2023-02-13T03:03:24;100203.84;;;7.84;58.28
49973;BME280;65693;49.798;10.968;2023-02-13T03:06:13;100203.00;;;7.83;58.49
49973;BME280;65693;49.798;10.968;2023-02-13T03:08:43;100206.56;;;7.82;58.12
49973;BME280;65693;49.798;10.968;2023-02-13T03:11:29;100198.66;;;7.81;58.22
49973;BME280;65693;49.798;10.968;2023-02-13T03:14:17;100202.25;;;7.77;58.53
49973;BME280;65693;49.798;10.968;2023-02-13T03:16:44;100204.91;;;7.75;58.73
49973;BME280;65693;49.798;10.968;2023-02-13T03:19:37;100200.53;;;7.76;58.25
49973;BME280;65693;49.798;10.968;2023-02-13T03:22:30;100207.59;;;7.74;58.94
49973;BME280;65693;49.798;10.968;2023-02-13T03:25:06;100211.97;;;7.76;58.21
49973;BME280;65693;49.798;10.968;2023-02-13T03:27:41;100213.78;;;7.73;58.42
49973;BME280;65693;49.798;10.968;2023-02-13T03:30:35;100206.84;;;7.68;58.29
49973;BME280;65693;49.798;10.968;2023-02-13T03:33:17;100208.53;;;7.71;58.15
49973;BME280;65693;49.798;10.968;2023-02-13T03:35:52;100212.97;;;7.69;58.69
49973;BME280;65693;49.798;10.968;2023-02-13T03:38:46;100213.00;;;7.67;58.56
49973;BME280;65693;49.798;10.968;2023-02-13T03:41:20;100207.78;;;7.64;58.60
49973;BME280;65693;49.798;10.968;2023-02-13T03:43:59;100208.66;;;7.65;58.58
49973;BME280;65693;49.798;10.968;2023-02-13T03:46:32;100210.41;;;7.64;58.31
49973;BME280;65693;49.798;10.968;2023-02-13T03:49:01;100216.50;;;7.69;58.15
49973;BME280;65693;49.798;10.968;2023-02-13T03:51:50;100220.03;;;7.68;58.19
49973;BME280;65693;49.798;10.968;2023-02-13T03:54:23;100226.19;;;7.67;58.64
49973;BME280;65693;49.798;10.968;2023-02-13T03:57:10;100218.34;;;7.64;58.45
49973;BME280;65693;49.798;10.968;2023-02-13T03:59:57;100225.34;;;7.65;58.44
49973;BME280;65693;49.798;10.968;2023-02-13T04:02:29;100221.13;;;7.57;58.64
49973;BME280;65693;49.798;10.968;2023-02-13T04:05:01;100215.84;;;7.57;58.26
49973;BME280;65693;49.798;10.968;2023-02-13T04:07:29;100219.44;;;7.54;58.32
49973;BME280;65693;49.798;10.968;2023-02-13T04:09:59;100222.09;;;7.51;58.55
49973;BME280;65693;49.798;10.968;2023-02-13T04:12:36;100215.97;;;7.52;58.50
49973;BME280;65693;49.798;10.968;2023-02-13T04:15:08;100219.56;;;7.46;58.73
49973;BME280;65693;49.798;10.968;2023-02-13T04:17:38;100215.97;;;7.52;58.42
49973;BME280;65693;49.798;10.968;2023-02-13T04:20:08;100220.38;;;7.50;58.78
49973;BME280;65693;49.798;10.968;2023-02-13T04:22:40;100218.63;;;7.49;58.32
49973;BME280;65693;49.798;10.968;2023-02-13T04:25:09;100223.88;;;7.50;58.40
49973;BME280;65693;49.798;10.968;2023-02-13T04:27:35;100218.69;;;7.47;58.41
49973;BME280;65693;49.798;10.968;2023-02-13T04:30:02;100219.56;;;7.46;58.41
49973;BME280;65693;49.798;10.968;2023-02-13T04:32:29;100219.59;;;7.45;58.34
49973;BME280;65693;49.798;10.968;2023-02-13T04:34:55;100216.09;;;7.44;58.36
49973;BME280;65693;49.798;10.968;2023-02-13T04:37:21;100217.84;;;7.45;58.32
49973;BME280;65693;49.798;10.968;2023-02-13T04:39:48;100213.53;;;7.39;58.70
49973;BME280;65693;49.798;10.968;2023-02-13T04:42:16;100218.75;;;7.44;58.38
49973;BME280;65693;49.798;10.968;2023-02-13T04:44:42;100217.91;;;7.40;58.77
49973;BME280;65693;49.798;10.968;2023-02-13T04:47:08;100208.25;;;7.39;58.41
49973;BME280;65693;49.798;10.968;2023-02-13T04:49:35;100212.69;;;7.37;58.49
49973;BME280;65693;49.798;10.968;2023-02-13T04:52:01;100204.72;;;7.40;58.42
49973;BME280;65693;49.798;10.968;2023-02-13T04:54:28;100211.75;;;7.40;58.20
49973;BME280;65693;49.798;10.968;2023-02-13T04:56:54;100207.38;;;7.40;58.50
49973;BME280;65693;49.798;10.968;2023-02-13T04:59:22;100210.91;;;7.38;58.75
49973;BME280;65693;49.798;10.968;2023-02-13T05:01:48;100208.34;;;7.35;58.49
49973;BME280;65693;49.798;10.968;2023-02-13T05:04:15;100211.81;;;7.38;58.23
49973;BME280;65693;49.798;10.968;2023-02-13T05:06:41;100206.53;;;7.37;58.45
49973;BME280;65693;49.798;10.968;2023-02-13T05:09:09;100210.97;;;7.36;58.49
49973;BME280;65693;49.798;10.968;2023-02-13T05:11:35;100208.28;;;7.38;58.23
49973;BME280;65693;49.798;10.968;2023-02-13T05:14:02;100210.09;;;7.34;58.43
49973;BME280;65693;49.798;10.968;2023-02-13T05:16:29;100219.84;;;7.31;58.41
49973;BME280;65693;49.798;10.968;2023-02-13T05:18:56;100219.94;;;7.26;58.77
49973;BME280;65693;49.798;10.968;2023-02-13T05:21:22;100233.09;;;7.28;58.71
49973;BME280;65693;49.798;10.968;2023-02-13T05:24:06;100218.25;;;7.22;58.92
49973;BME280;65693;49.798;10.968;2023-02-13T05:26:33;100219.94;;;7.26;58.34
49973;BME280;65693;49.798;10.968;2023-02-13T05:28:59;100227.84;;;7.26;58.78
49973;BME280;65693;49.798;10.968;2023-02-13T05:31:46;100234.03;;;7.25;58.52
49973;BME280;65693;49.798;10.968;2023-02-13T05:34:13;100229.66;;;7.24;58.34
49973;BME280;65693;49.798;10.968;2023-02-13T05:36:39;100235.81;;;7.23;58.42
49973;BME280;65693;49.798;10.968;2023-02-13T05:39:06;100232.28;;;7.24;58.24
49973;BME280;65693;49.798;10.968;2023-02-13T05:41:33;100227.00;;;7.24;58.24
49973;BME280;65693;49.798;10.968;2023-02-13T05:43:59;100230.56;;;7.21;58.72
49973;BME280;65693;49.798;10.968;2023-02-13T05:46:26;100237.56;;;7.22;58.64
49973;BME280;65693;49.798;10.968;2023-02-13T05:48:53;100235.00;;;7.19;58.62
49973;BME280;65693;49.798;10.968;2023-02-13T05:51:20;100237.69;;;7.16;58.68
49973;BME280;65693;49.798;10.968;2023-02-13T05:53:46;100237.69;;;7.15;58.80
49973;BME280;65693;49.798;10.968;2023-02-13T05:56:13;100249.97;;;7.19;58.30
49973;BME280;65693;49.798;10.968;2023-02-13T05:58:39;100248.25;;;7.16;58.60
49973;BME280;65693;49.798;10.968;2023-02-13T06:01:06;100252.72;;;7.11;58.83
49973;BME280;65693;49.798;10.968;2023-02-13T06:03:32;100251.00;;;7.08;58.83
49973;BME280;65693;49.798;10.968;2023-02-13T06:06:00;100258.06;;;7.06;59.01
49973;BME280;65693;49.798;10.968;2023-02-13T06:08:26;100256.34;;;7.04;58.91
49973;BME280;65693;49.798;10.968;2023-02-13T06:10:53;100264.19;;;7.07;58.59
49973;BME280;65693;49.798;10.968;2023-02-13T06:13:20;100258.97;;;7.05;58.68
49973;BME280;65693;49.798;10.968;2023-02-13T06:15:46;100264.25;;;7.04;58.69
49973;BME280;65693;49.798;10.968;2023-02-13T06:18:12;100261.56;;;7.07;58.49
49973;BME280;65693;49.798;10.968;2023-02-13T06:20:39;100261.84;;;6.90;57.08
49973;BME280;65693;49.798;10.968;2023-02-13T06:23:07;100265.38;;;6.89;57.10
49973;BME280;65693;49.798;10.968;2023-02-13T06:25:33;100279.47;;;6.88;57.72
49973;BME280;65693;49.798;10.968;2023-02-13T06:28:00;100271.50;;;6.89;57.64
49973;BME280;65693;49.798;10.968;2023-02-13T06:30:26;100283.69;;;6.98;57.42
49973;BME280;65693;49.798;10.968;2023-02-13T06:32:55;100277.63;;;6.93;57.92
49973;BME280;65693;49.798;10.968;2023-02-13T06:35:22;100290.81;;;6.91;57.93
49973;BME280;65693;49.798;10.968;2023-02-13T06:37:48;100296.13;;;6.88;58.43
49973;BME280;65693;49.798;10.968;2023-02-13T06:40:16;100297.03;;;6.87;58.36
49973;BME280;65693;49.798;10.968;2023-02-13T06:42:43;100300.56;;;6.86;58.27
49973;BME280;65693;49.798;10.968;2023-02-13T06:45:10;100303.19;;;6.86;57.09
49973;BME280;65693;49.798;10.968;2023-02-13T06:47:40;100302.47;;;6.75;56.00
49973;BME280;65693;49.798;10.968;2023-02-13T06:50:07;100300.81;;;6.69;56.28
49973;BME280;65693;49.798;10.968;2023-02-13T06:52:33;100304.38;;;6.65;57.56
49973;BME280;65693;49.798;10.968;2023-02-13T06:55:00;100306.16;;;6.63;58.10
49973;BME280;65693;49.798;10.968;2023-02-13T06:58:04;100314.97;;;6.62;58.10
49973;BME280;65693;49.798;10.968;2023-02-13T07:00:31;100307.09;;;6.60;58.37
49973;BME280;65693;49.798;10.968;2023-02-13T07:03:00;100312.38;;;6.59;58.40
49973;BME280;65693;49.798;10.968;2023-02-13T07:05:27;100312.38;;;6.57;58.46
49973;BME280;65693;49.798;10.968;2023-02-13T07:07:54;100311.53;;;6.57;58.28
49973;BME280;65693;49.798;10.968;2023-02-13T07:10:20;100308.91;;;6.57;58.41
49973;BME280;65693;49.798;10.968;2023-02-13T07:12:48;100315.91;;;6.56;58.62
49973;BME280;65693;49.798;10.968;2023-02-13T07:15:15;100308.03;;;6.54;58.56
49973;BME280;65693;49.798;10.968;2023-02-13T07:17:41;100310.69;;;6.54;58.51
49973;BME280;65693;49.798;10.968;2023-02-13T07:20:09;100317.69;;;6.54;58.52
49973;BME280;65693;49.798;10.968;2023-02-13T07:22:35;100322.13;;;6.52;58.47
49973;BME280;65693;49.798;10.968;2023-02-13T07:25:02;100321.22;;;6.51;58.46
49973;BME280;65693;49.798;10.968;2023-02-13T07:27:28;100321.22;;;6.53;58.73
49973;BME280;65693;49.798;10.968;2023-02-13T07:29:56;100312.47;;;6.51;58.66
49973;BME280;65693;49.798;10.968;2023-02-13T07:32:22;100315.13;;;6.49;58.67
49973;BME280;65693;49.798;10.968;2023-02-13T07:34:49;100309.00;;;6.49;59.02
49973;BME280;65693;49.798;10.968;2023-02-13T07:37:15;100313.38;;;6.48;58.87
49973;BME280;65693;49.798;10.968;2023-02-13T07:39:42;100313.41;;;6.47;58.94
49973;BME280;65693;49.798;10.968;2023-02-13T07:42:08;100315.16;;;6.46;59.06
49973;BME280;65693;49.798;10.968;2023-02-13T07:44:35;100312.53;;;6.46;58.93
49973;BME280;65693;49.798;10.968;2023-02-13T07:47:03;100306.41;;;6.44;59.08
49973;BME280;65693;49.798;10.968;2023-02-13T07:49:29;100309.06;;;6.43;58.84
49973;BME280;65693;49.798;10.968;2023-02-13T07:51:55;100315.22;;;6.43;59.21
49973;BME280;65693;49.798;10.968;2023-02-13T07:54:23;100324.88;;;6.43;59.04
49973;BME280;65693;49.798;10.968;2023-02-13T07:56:49;100322.25;;;6.41;59.16
49973;BME280;65693;49.798;10.968;2023-02-13T07:59:15;100323.16;;;6.40;58.97
49973;BME280;65693;49.798;10.968;2023-02-13T08:01:42;100320.53;;;6.40;59.16
49973;BME280;65693;49.798;10.968;2023-02-13T08:04:09;100319.69;;;6.38;59.21
49973;BME280;65693;49.798;10.968;2023-02-13T08:06:38;100317.94;;;6.37;59.21
49973;BME280;65693;49.798;10.968;2023-02-13T08:09:04;100317.03;;;6.36;58.90
49973;BME280;65693;49.798;10.968;2023-02-13T08:11:48;100314.41;;;6.36;59.05
49973;BME280;65693;49.798;10.968;2023-02-13T08:14:22;100322.31;;;6.35;59.50
49973;BME280;65693;49.798;10.968;2023-02-13T08:16:49;100321.47;;;6.36;59.46
49973;BME280;65693;49.798;10.968;2023-02-13T08:19:17;100320.56;;;6.35;59.33
49973;BME280;65693;49.798;10.968;2023-02-13T08:21:44;100325.84;;;6.34;59.39
49973;BME280;65693;49.798;10.968;2023-02-13T08:24:11;100320.59;;;6.34;59.28
49973;BME280;65693;49.798;10.968;2023-02-13T08:26:38;100324.09;;;6.33;59.46
49973;BME280;65693;49.798;10.968;2023-02-13T08:29:05;100318.00;;;6.32;59.16
49973;BME280;65693;49.798;10.968;2023-02-13T08:31:31;100318.88;;;6.31;59.35
49973;BME280;65693;49.798;10.968;2023-02-13T08:33:58;100316.25;;;6.31;59.47
49973;BME280;65693;49.798;10.968;2023-02-13T08:36:25;100323.22;;;6.31;59.39
49973;BME280;65693;49.798;10.968;2023-02-13T08:38:52;100319.75;;;6.30;59.47
49973;BME280;65693;49.798;10.968;2023-02-13T08:41:18;100322.38;;;6.28;59.51
49973;BME280;65693;49.798;10.968;2023-02-13T08:43:46;100314.47;;;6.30;59.49
49973;BME280;65693;49.798;10.968;2023-02-13T08:46:13;100312.72;;;6.29;59.35
49973;BME280;65693;49.798;10.968;2023-02-13T08:48:39;100316.25;;;6.28;59.32
49973;BME280;65693;49.798;10.968;2023-02-13T08:51:06;100319.75;;;6.28;59.41
49973;BME280;65693;49.798;10.968;2023-02-13T08:53:35;100316.22;;;6.30;59.27
49973;BME280;65693;49.798;10.968;2023-02-13T08:56:02;100309.25;;;6.27;59.62
49973;BME280;65693;49.798;10.968;2023-02-13T08:58:28;100307.47;;;6.26;59.48
49973;BME280;65693;49.798;10.968;2023-02-13T09:00:55;100311.88;;;6.27;59.35
49973;BME280;65693;49.798;10.968;2023-02-13T09:03:22;100314.53;;;6.25;59.43
49973;BME280;65693;49.798;10.968;2023-02-13T09:05:48;100319.78;;;6.27;59.39
49973;BME280;65693;49.798;10.968;2023-02-13T09:08:15;100328.53;;;6.29;59.24
49973;BME280;65693;49.798;10.968;2023-02-13T09:10:43;100327.69;;;6.27;59.35
49973;BME280;65693;49.798;10.968;2023-02-13T09:13:10;100334.69;;;6.28;59.37
49973;BME280;65693;49.798;10.968;2023-02-13T09:15:37;100329.44;;;6.26;59.44
49973;BME280;65693;49.798;10.968;2023-02-13T09:18:04;100334.69;;;6.26;59.61
49973;BME280;65693;49.798;10.968;2023-02-13T09:20:30;100325.91;;;6.27;59.56
49973;BME280;65693;49.798;10.968;2023-02-13T09:22:56;100334.69;;;6.28;59.37
49973;BME280;65693;49.798;10.968;2023-02-13T09:25:23;100329.44;;;6.26;59.64
49973;BME280;65693;49.798;10.968;2023-02-13T09:27:51;100330.31;;;6.25;59.40
49973;BME280;65693;49.798;10.968;2023-02-13T09:30:18;100328.53;;;6.29;59.45
49973;BME280;65693;49.798;10.968;2023-02-13T09:32:48;100332.06;;;6.28;59.34
49973;BME280;65693;49.798;10.968;2023-02-13T09:35:15;100325.00;;;6.28;59.61
49973;BME280;65693;49.798;10.968;2023-02-13T09:37:41;100323.25;;;6.29;59.44
49973;BME280;65693;49.798;10.968;2023-02-13T09:40:15;100325.91;;;6.27;59.38
49973;BME280;65693;49.798;10.968;2023-02-13T09:42:44;100330.28;;;6.30;59.39
49973;BME280;65693;49.798;10.968;2023-02-13T09:45:13;100335.53;;;6.30;59.59
49973;BME280;65693;49.798;10.968;2023-02-13T09:47:43;100326.78;;;6.31;59.60
49973;BME280;65693;49.798;10.968;2023-02-13T09:50:15;100332.94;;;6.27;59.54
49973;BME280;65693;49.798;10.968;2023-02-13T09:52:45;100323.25;;;6.29;59.10
49973;BME280;65693;49.798;10.968;2023-02-13T09:55:16;100331.16;;;6.27;59.64
49973;BME280;65693;49.798;10.968;2023-02-13T09:57:47;100336.41;;;6.31;59.59
49973;BME280;65693;49.798;10.968;2023-02-13T10:00:21;100339.06;;;6.27;59.59
49973;BME280;65693;49.798;10.968;2023-02-13T10:03:16;100336.44;;;6.29;59.48
49973;BME280;65693;49.798;10.968;2023-02-13T10:05:50;100340.84;;;6.27;59.50
49973;BME280;65693;49.798;10.968;2023-02-13T10:08:30;100346.06;;;6.28;59.63
49973;BME280;65693;49.798;10.968;2023-02-13T10:11:06;100338.22;;;6.25;59.53
49973;BME280;65693;49.798;10.968;2023-02-13T10:13:54;100344.34;;;6.29;59.48
49973;BME280;65693;49.798;10.968;2023-02-13T10:16:31;100342.59;;;6.28;59.60
49973;BME280;65693;49.798;10.968;2023-02-13T10:19:15;100336.44;;;6.29;59.71
49973;BME280;65693;49.798;10.968;2023-02-13T10:21:51;100339.06;;;6.29;59.58
49973;BME280;65693;49.798;10.968;2023-02-13T10:24:26;100335.53;;;6.28;59.67
49973;BME280;65693;49.798;10.968;2023-02-13T10:26:55;100330.31;;;6.25;59.66
49973;BME280;65693;49.798;10.968;2023-02-13T10:29:30;100335.59;;;6.25;59.48
49973;BME280;65693;49.798;10.968;2023-02-13T10:32:24;100335.53;;;6.30;59.56
49973;BME280;65693;49.798;10.968;2023-02-13T10:34:54;100336.44;;;6.27;59.62
49973;BME280;65693;49.798;10.968;2023-02-13T10:37:24;100332.91;;;6.28;59.62
49973;BME280;65693;49.798;10.968;2023-02-13T10:39:51;100341.69;;;6.29;59.50
49973;BME280;65693;49.798;10.968;2023-02-13T10:42:20;100332.03;;;6.30;59.70
49973;BME280;65693;49.798;10.968;2023-02-13T10:44:56;100335.59;;;6.27;59.64
49973;BME280;65693;49.798;10.968;2023-02-13T10:47:39;100332.94;;;6.27;59.63
49973;BME280;65693;49.798;10.968;2023-02-13T10:50:15;100325.06;;;6.27;59.69
49973;BME280;65693;49.798;10.968;2023-02-13T10:52:51;100325.91;;;6.26;59.57
49973;BME280;65693;49.798;10.968;2023-02-13T10:55:33;100327.69;;;6.27;59.64
49973;BME280;65693;49.798;10.968;2023-02-13T10:58:08;100319.78;;;6.27;59.44
49973;BME280;65693;49.798;10.968;2023-02-13T11:00:41;100317.13;;;6.28;59.66
49973;BME280;65693;49.798;10.968;2023-02-13T11:03:17;100315.38;;;6.29;59.62
49973;BME280;65693;49.798;10.968;2023-02-13T11:05:44;100317.16;;;6.27;59.58
49973;BME280;65693;49.798;10.968;2023-02-13T11:08:17;100317.16;;;6.25;59.79
49973;BME280;65693;49.798;10.968;2023-02-13T11:10:43;100315.38;;;6.27;59.86
49973;BME280;65693;49.798;10.968;2023-02-13T11:13:17;100308.38;;;6.26;59.81
49973;BME280;65693;49.798;10.968;2023-02-13T11:15:59;100313.59;;;6.30;59.67
49973;BME280;65693;49.798;10.968;2023-02-13T11:18:29;100313.59;;;6.30;59.70
49973;BME280;65693;49.798;10.968;2023-02-13T11:21:02;100321.50;;;6.30;59.80
49973;BME280;65693;49.798;10.968;2023-02-13T11:23:42;100307.47;;;6.27;59.93
49973;BME280;65693;49.798;10.968;2023-02-13T11:26:11;100306.56;;;6.28;60.00
49973;BME280;65693;49.798;10.968;2023-02-13T11:28:47;100311.00;;;6.28;59.66
49973;BME280;65693;49.798;10.968;2023-02-13T11:31:22;100316.25;;;6.28;59.96
49973;BME280;65693;49.798;10.968;2023-02-13T11:33:51;100315.38;;;6.27;59.87
49973;BME280;65693;49.798;10.968;2023-02-13T11:36:23;100318.84;;;6.30;60.07
49973;BME280;65693;49.798;10.968;2023-02-13T11:38:57;100314.47;;;6.28;59.88
49973;BME280;65693;49.798;10.968;2023-02-13T11:41:24;100314.47;;;6.28;59.96
49973;BME280;65693;49.798;10.968;2023-02-13T11:43:53;100310.09;;;6.29;59.79
49973;BME280;65693;49.798;10.968;2023-02-13T11:46:27;100305.72;;;6.28;60.19
49973;BME280;65693;49.798;10.968;2023-02-13T11:49:00;100307.47;;;6.29;59.80
49973;BME280;65693;49.798;10.968;2023-02-13T11:51:41;100303.94;;;6.30;59.87
49973;BME280;65693;49.798;10.968;2023-02-13T11:54:22;100295.13;;;6.33;59.73
49973;BME280;65693;49.798;10.968;2023-02-13T11:56:52;100304.78;;;6.31;59.85
49973;BME280;65693;49.798;10.968;2023-02-13T11:59:21;100298.69;;;6.28;60.05
49973;BME280;65693;49.798;10.968;2023-02-13T12:02:00;100296.91;;;6.32;59.87
49973;BME280;65693;49.798;10.968;2023-02-13T12:04:28;100288.97;;;6.34;59.86
49973;BME280;65693;49.798;10.968;2023-02-13T12:07:00;100295.13;;;6.34;59.88
49973;BME280;65693;49.798;10.968;2023-02-13T12:09:29;100283.72;;;6.34;59.86
49973;BME280;65693;49.798;10.968;2023-02-13T12:11:57;100287.25;;;6.33;59.90
49973;BME280;65693;49.798;10.968;2023-02-13T12:14:27;100281.06;;;6.34;59.89
49973;BME280;65693;49.798;10.968;2023-02-13T12:16:59;100278.44;;;6.35;60.03
49973;BME280;65693;49.798;10.968;2023-02-13T12:19:33;100275.81;;;6.35;59.86
49973;BME280;65693;49.798;10.968;2023-02-13T12:22:11;100275.81;;;6.34;60.12
49973;BME280;65693;49.798;10.968;2023-02-13T12:24:56;100267.94;;;6.32;59.93
49973;BME280;65693;49.798;10.968;2023-02-13T12:27:28;100266.16;;;6.33;59.82
49973;BME280;65693;49.798;10.968;2023-02-13T12:30:14;100265.28;;;6.34;59.97
49973;BME280;65693;49.798;10.968;2023-02-13T12:32:51;100252.09;;;6.34;59.87
49973;BME280;65693;49.798;10.968;2023-02-13T12:35:38;100252.09;;;6.35;60.04
49973;BME280;65693;49.798;10.968;2023-02-13T12:38:18;100253.84;;;6.35;59.90
49973;BME280;65693;49.798;10.968;2023-02-13T12:41:01;100264.44;;;6.33;59.86
49973;BME280;65693;49.798;10.968;2023-02-13T12:46:43;100251.25;;;6.32;60.10
49973;BME280;65693;49.798;10.968;2023-02-13T12:49:23;100242.47;;;6.33;60.01
49973;BME280;65693;49.798;10.968;2023-02-13T12:52:06;100241.59;;;6.31;60.08
49973;BME280;65693;49.798;10.968;2023-02-13T12:54:43;100233.66;;;6.34;60.25
49973;BME280;65693;49.798;10.968;2023-02-13T12:57:22;100233.66;;;6.34;60.62
49973;BME280;65693;49.798;10.968;2023-02-13T13:00:09;100241.56;;;6.34;60.23
49973;BME280;65693;49.798;10.968;2023-02-13T13:02:48;100233.66;;;6.37;60.07
49973;BME280;65693;49.798;10.968;2023-02-13T13:05:26;100227.50;;;6.35;59.96
49973;BME280;65693;49.798;10.968;2023-02-13T13:08:09;100230.13;;;6.36;59.81
49973;BME280;65693;49.798;10.968;2023-02-13T13:10:48;100230.13;;;6.36;59.88
49973;BME280;65693;49.798;10.968;2023-02-13T13:13:26;100223.97;;;6.37;60.10
49973;BME280;65693;49.798;10.968;2023-02-13T13:16:02;100213.38;;;6.40;59.78
49973;BME280;65693;49.798;10.968;2023-02-13T13:18:42;100217.81;;;6.40;59.75
49973;BME280;65693;49.798;10.968;2023-02-13T13:21:22;100219.53;;;6.41;59.78
49973;BME280;65693;49.798;10.968;2023-02-13T13:23:54;100208.97;;;6.43;59.73